sensor_id;sensor_type;location;lat;lon;timestamp;P1;durP1;ratioP1;P2;durP2;ratioP2
9461;SDS011;4769;42.660;23.262;2023-04-15T00:00:29;10.43;;;6.90;;
9461;SDS011;4769;42.660;23.262;2023-04-15T00:02:55;14.00;;;7.73;;
9461;SDS011;4769;42.660;23.262;2023-04-15T00:05:21;11.10;;;8.30;;
9461;SDS011;4769;42.660;23.262;2023-04-15T00:07:46;8.13;;;5.83;;
9461;SDS011;4769;42.660;23.262;2023-04-15T00:10:12;11.27;;;6.53;;
9461;SDS011;4769;42.660;23.262;2023-04-15T00:12:40;7.70;;;5.23;;
9461;SDS011;4769;42.660;23.262;2023-04-15T00:15:07;7.10;;;4.23;;
9461;SDS011;4769;42.660;23.262;2023-04-15T00:17:33;6.67;;;3.87;;
9461;SDS011;4769;42.660;23.262;2023-04-15T00:19:59;5.10;;;3.47;;
9461;SDS011;4769;42.660;23.262;2023-04-15T00:22:25;6.10;;;4.10;;
9461;SDS011;4769;42.660;23.262;2023-04-15T00:24:51;5.10;;;3.57;;
9461;SDS011;4769;42.660;23.262;2023-04-15T00:27:17;6.43;;;3.63;;
9461;SDS011;4769;42.660;23.262;2023-04-15T00:29:46;5.57;;;4.10;;
9461;SDS011;4769;42.660;23.262;2023-04-15T00:32:11;5.33;;;3.43;;
9461;SDS011;4769;42.660;23.262;2023-04-15T00:34:37;5.23;;;3.60;;
9461;SDS011;4769;42.660;23.262;2023-04-15T00:37:03;5.63;;;3.80;;
9461;SDS011;4769;42.660;23.262;2023-04-15T00:39:28;6.30;;;4.40;;
9461;SDS011;4769;42.660;23.262;2023-04-15T00:41:54;7.30;;;5.27;;
9461;SDS011;4769;42.660;23.262;2023-04-15T00:44:20;8.07;;;4.63;;
9461;SDS011;4769;42.660;23.262;2023-04-15T00:46:48;6.13;;;3.50;;
9461;SDS011;4769;42.660;23.262;2023-04-15T00:49:15;4.87;;;3.80;;
9461;SDS011;4769;42.660;23.262;2023-04-15T00:51:41;7.23;;;4.57;;
9461;SDS011;4769;42.660;23.262;2023-04-15T00:54:07;5.50;;;4.40;;
9461;SDS011;4769;42.660;23.262;2023-04-15T00:56:34;7.87;;;5.20;;
9461;SDS011;4769;42.660;23.262;2023-04-15T00:59:00;6.53;;;5.30;;
9461;SDS011;4769;42.660;23.262;2023-04-15T01:01:26;6.90;;;4.83;;
9461;SDS011;4769;42.660;23.262;2023-04-15T01:03:55;5.23;;;4.67;;
9461;SDS011;4769;42.660;23.262;2023-04-15T01:06:21;7.00;;;4.60;;
9461;SDS011;4769;42.660;23.262;2023-04-15T01:08:47;6.10;;;3.97;;
9461;SDS011;4769;42.660;23.262;2023-04-15T01:11:12;6.40;;;3.77;;
9461;SDS011;4769;42.660;23.262;2023-04-15T01:13:39;7.33;;;4.50;;
9461;SDS011;4769;42.660;23.262;2023-04-15T01:16:05;6.90;;;4.03;;
9461;SDS011;4769;42.660;23.262;2023-04-15T01:18:32;8.93;;;3.53;;
9461;SDS011;4769;42.660;23.262;2023-04-15T01:21:00;5.50;;;4.00;;
9461;SDS011;4769;42.660;23.262;2023-04-15T01:23:26;8.83;;;4.33;;
9461;SDS011;4769;42.660;23.262;2023-04-15T01:25:54;8.93;;;5.40;;
9461;SDS011;4769;42.660;23.262;2023-04-15T01:28:20;7.37;;;4.30;;
9461;SDS011;4769;42.660;23.262;2023-04-15T01:30:46;4.30;;;3.47;;
9461;SDS011;4769;42.660;23.262;2023-04-15T01:33:12;6.57;;;3.13;;
9461;SDS011;4769;42.660;23.262;2023-04-15T01:35:37;6.27;;;3.30;;
9461;SDS011;4769;42.660;23.262;2023-04-15T01:38:05;6.80;;;3.60;;
9461;SDS011;4769;42.660;23.262;2023-04-15T01:40:33;9.07;;;5.73;;
9461;SDS011;4769;42.660;23.262;2023-04-15T01:43:01;7.60;;;4.63;;
9461;SDS011;4769;42.660;23.262;2023-04-15T01:45:27;7.40;;;3.90;;
9461;SDS011;4769;42.660;23.262;2023-04-15T01:47:53;7.20;;;3.90;;
9461;SDS011;4769;42.660;23.262;2023-04-15T01:50:18;5.63;;;3.60;;
9461;SDS011;4769;42.660;23.262;2023-04-15T01:52:44;9.80;;;4.87;;
9461;SDS011;4769;42.660;23.262;2023-04-15T01:55:11;6.90;;;4.60;;
9461;SDS011;4769;42.660;23.262;2023-04-15T01:57:37;8.17;;;5.20;;
9461;SDS011;4769;42.660;23.262;2023-04-15T02:00:05;5.27;;;3.73;;
9461;SDS011;4769;42.660;23.262;2023-04-15T02:02:32;4.33;;;3.83;;
9461;SDS011;4769;42.660;23.262;2023-04-15T02:04:58;5.03;;;2.40;;
9461;SDS011;4769;42.660;23.262;2023-04-15T02:07:23;4.50;;;2.80;;
9461;SDS011;4769;42.660;23.262;2023-04-15T02:09:49;4.13;;;2.43;;
9461;SDS011;4769;42.660;23.262;2023-04-15T02:12:15;19.10;;;10.90;;
9461;SDS011;4769;42.660;23.262;2023-04-15T02:14:40;7.93;;;4.63;;
9461;SDS011;4769;42.660;23.262;2023-04-15T02:17:09;8.80;;;4.00;;
9461;SDS011;4769;42.660;23.262;2023-04-15T02:19:34;5.47;;;2.90;;
9461;SDS011;4769;42.660;23.262;2023-04-15T02:22:00;3.07;;;2.47;;
9461;SDS011;4769;42.660;23.262;2023-04-15T02:24:26;5.10;;;2.47;;
9461;SDS011;4769;42.660;23.262;2023-04-15T02:26:52;5.73;;;3.20;;
9461;SDS011;4769;42.660;23.262;2023-04-15T02:29:17;9.60;;;5.43;;
9461;SDS011;4769;42.660;23.262;2023-04-15T02:31:43;9.23;;;4.57;;
9461;SDS011;4769;42.660;23.262;2023-04-15T02:34:11;8.07;;;4.13;;
9461;SDS011;4769;42.660;23.262;2023-04-15T02:36:37;8.47;;;3.90;;
9461;SDS011;4769;42.660;23.262;2023-04-15T02:39:03;4.93;;;2.97;;
9461;SDS011;4769;42.660;23.262;2023-04-15T02:41:28;6.10;;;2.87;;
9461;SDS011;4769;42.660;23.262;2023-04-15T02:43:54;4.23;;;2.87;;
9461;SDS011;4769;42.660;23.262;2023-04-15T02:46:20;3.40;;;2.50;;
9461;SDS011;4769;42.660;23.262;2023-04-15T02:48:46;5.00;;;2.90;;
9461;SDS011;4769;42.660;23.262;2023-04-15T02:51:15;6.17;;;3.30;;
9461;SDS011;4769;42.660;23.262;2023-04-15T02:53:42;6.17;;;3.10;;
9461;SDS011;4769;42.660;23.262;2023-04-15T02:56:08;3.97;;;2.80;;
9461;SDS011;4769;42.660;23.262;2023-04-15T02:58:34;3.93;;;2.57;;
9461;SDS011;4769;42.660;23.262;2023-04-15T03:01:00;8.57;;;4.63;;
9461;SDS011;4769;42.660;23.262;2023-04-15T03:03:26;5.10;;;3.80;;
9461;SDS011;4769;42.660;23.262;2023-04-15T03:05:51;7.43;;;5.00;;
9461;SDS011;4769;42.660;23.262;2023-04-15T03:08:20;6.90;;;5.00;;
9461;SDS011;4769;42.660;23.262;2023-04-15T03:10:45;8.47;;;4.93;;
9461;SDS011;4769;42.660;23.262;2023-04-15T03:13:11;5.33;;;4.80;;
9461;SDS011;4769;42.660;23.262;2023-04-15T03:15:37;6.77;;;4.73;;
9461;SDS011;4769;42.660;23.262;2023-04-15T03:18:03;8.07;;;4.77;;
9461;SDS011;4769;42.660;23.262;2023-04-15T03:20:28;7.77;;;5.17;;
9461;SDS011;4769;42.660;23.262;2023-04-15T03:22:54;8.60;;;5.13;;
9461;SDS011;4769;42.660;23.262;2023-04-15T03:25:22;7.27;;;4.43;;
9461;SDS011;4769;42.660;23.262;2023-04-15T03:27:48;8.90;;;5.13;;
9461;SDS011;4769;42.660;23.262;2023-04-15T03:30:14;7.43;;;5.30;;
9461;SDS011;4769;42.660;23.262;2023-04-15T03:32:39;12.33;;;6.83;;
9461;SDS011;4769;42.660;23.262;2023-04-15T03:35:05;11.33;;;6.80;;
9461;SDS011;4769;42.660;23.262;2023-04-15T03:37:31;10.50;;;6.33;;
9461;SDS011;4769;42.660;23.262;2023-04-15T03:39:57;6.83;;;5.63;;
9461;SDS011;4769;42.660;23.262;2023-04-15T03:42:25;6.00;;;4.47;;
9461;SDS011;4769;42.660;23.262;2023-04-15T03:44:51;7.93;;;5.00;;
9461;SDS011;4769;42.660;23.262;2023-04-15T03:47:16;8.13;;;5.03;;
9461;SDS011;4769;42.660;23.262;2023-04-15T03:49:42;8.60;;;6.17;;
9461;SDS011;4769;42.660;23.262;2023-04-15T03:52:08;5.53;;;4.83;;
9461;SDS011;4769;42.660;23.262;2023-04-15T03:54:33;6.93;;;4.80;;
9461;SDS011;4769;42.660;23.262;2023-04-15T03:56:59;8.67;;;5.60;;
9461;SDS011;4769;42.660;23.262;2023-04-15T03:59:27;7.33;;;5.17;;
9461;SDS011;4769;42.660;23.262;2023-04-15T04:01:53;8.70;;;6.20;;
9461;SDS011;4769;42.660;23.262;2023-04-15T04:04:19;7.00;;;5.57;;
9461;SDS011;4769;42.660;23.262;2023-04-15T04:06:44;9.40;;;6.27;;
9461;SDS011;4769;42.660;23.262;2023-04-15T04:09:10;10.53;;;6.37;;
9461;SDS011;4769;42.660;23.262;2023-04-15T04:11:36;8.63;;;6.33;;
9461;SDS011;4769;42.660;23.262;2023-04-15T04:14:01;8.90;;;6.13;;
9461;SDS011;4769;42.660;23.262;2023-04-15T04:16:30;7.60;;;5.67;;
9461;SDS011;4769;42.660;23.262;2023-04-15T04:18:55;8.43;;;6.47;;
9461;SDS011;4769;42.660;23.262;2023-04-15T04:21:21;6.93;;;6.20;;
9461;SDS011;4769;42.660;23.262;2023-04-15T04:23:47;9.83;;;6.40;;
9461;SDS011;4769;42.660;23.262;2023-04-15T04:26:13;9.13;;;5.80;;
9461;SDS011;4769;42.660;23.262;2023-04-15T04:28:38;9.70;;;5.63;;
9461;SDS011;4769;42.660;23.262;2023-04-15T04:31:04;7.13;;;5.60;;
9461;SDS011;4769;42.660;23.262;2023-04-15T04:33:33;7.63;;;4.90;;
9461;SDS011;4769;42.660;23.262;2023-04-15T04:35:59;7.30;;;5.37;;
9461;SDS011;4769;42.660;23.262;2023-04-15T04:38:24;7.17;;;5.07;;
9461;SDS011;4769;42.660;23.262;2023-04-15T04:40:50;8.57;;;6.27;;
9461;SDS011;4769;42.660;23.262;2023-04-15T04:43:16;10.73;;;8.50;;
9461;SDS011;4769;42.660;23.262;2023-04-15T04:45:42;11.93;;;9.20;;
9461;SDS011;4769;42.660;23.262;2023-04-15T04:48:07;12.17;;;9.53;;
9461;SDS011;4769;42.660;23.262;2023-04-15T04:50:35;11.43;;;8.80;;
9461;SDS011;4769;42.660;23.262;2023-04-15T04:53:01;10.80;;;8.03;;
9461;SDS011;4769;42.660;23.262;2023-04-15T04:55:27;9.10;;;8.10;;
9461;SDS011;4769;42.660;23.262;2023-04-15T04:57:53;11.93;;;9.30;;
9461;SDS011;4769;42.660;23.262;2023-04-15T05:00:18;11.93;;;8.70;;
9461;SDS011;4769;42.660;23.262;2023-04-15T05:02:44;12.63;;;8.60;;
9461;SDS011;4769;42.660;23.262;2023-04-15T05:05:10;10.97;;;8.63;;
9461;SDS011;4769;42.660;23.262;2023-04-15T05:07:38;9.00;;;7.63;;
9461;SDS011;4769;42.660;23.262;2023-04-15T05:10:05;9.07;;;7.23;;
9461;SDS011;4769;42.660;23.262;2023-04-15T05:12:31;11.57;;;8.03;;
9461;SDS011;4769;42.660;23.262;2023-04-15T05:14:57;14.97;;;8.23;;
9461;SDS011;4769;42.660;23.262;2023-04-15T05:17:23;10.70;;;7.93;;
9461;SDS011;4769;42.660;23.262;2023-04-15T05:19:48;10.03;;;7.70;;
9461;SDS011;4769;42.660;23.262;2023-04-15T05:22:14;9.97;;;7.23;;
9461;SDS011;4769;42.660;23.262;2023-04-15T05:24:42;9.33;;;6.63;;
9461;SDS011;4769;42.660;23.262;2023-04-15T05:27:08;8.97;;;6.20;;
9461;SDS011;4769;42.660;23.262;2023-04-15T05:29:34;10.30;;;6.50;;
9461;SDS011;4769;42.660;23.262;2023-04-15T05:31:59;10.73;;;7.00;;
9461;SDS011;4769;42.660;23.262;2023-04-15T05:34:25;11.23;;;8.93;;
9461;SDS011;4769;42.660;23.262;2023-04-15T05:36:51;15.93;;;14.23;;
9461;SDS011;4769;42.660;23.262;2023-04-15T05:39:16;14.73;;;12.23;;
9461;SDS011;4769;42.660;23.262;2023-04-15T05:41:45;15.03;;;10.90;;
9461;SDS011;4769;42.660;23.262;2023-04-15T05:44:10;13.50;;;10.17;;
9461;SDS011;4769;42.660;23.262;2023-04-15T05:46:36;14.07;;;10.57;;
9461;SDS011;4769;42.660;23.262;2023-04-15T05:49:02;10.13;;;8.97;;
9461;SDS011;4769;42.660;23.262;2023-04-15T05:51:27;12.33;;;9.37;;
9461;SDS011;4769;42.660;23.262;2023-04-15T05:53:53;11.67;;;8.20;;
9461;SDS011;4769;42.660;23.262;2023-04-15T05:56:19;11.97;;;8.67;;
9461;SDS011;4769;42.660;23.262;2023-04-15T05:58:47;13.47;;;8.73;;
9461;SDS011;4769;42.660;23.262;2023-04-15T06:01:13;10.63;;;8.20;;
9461;SDS011;4769;42.660;23.262;2023-04-15T06:03:38;11.73;;;8.47;;
9461;SDS011;4769;42.660;23.262;2023-04-15T06:06:04;12.90;;;9.03;;
9461;SDS011;4769;42.660;23.262;2023-04-15T06:08:30;12.70;;;8.47;;
9461;SDS011;4769;42.660;23.262;2023-04-15T06:10:57;10.30;;;8.27;;
9461;SDS011;4769;42.660;23.262;2023-04-15T06:13:22;11.53;;;8.00;;
9461;SDS011;4769;42.660;23.262;2023-04-15T06:15:51;15.33;;;9.17;;
9461;SDS011;4769;42.660;23.262;2023-04-15T06:18:17;12.03;;;8.57;;
9461;SDS011;4769;42.660;23.262;2023-04-15T06:20:42;10.53;;;8.07;;
9461;SDS011;4769;42.660;23.262;2023-04-15T06:23:08;23.47;;;8.43;;
9461;SDS011;4769;42.660;23.262;2023-04-15T06:25:34;10.53;;;7.63;;
9461;SDS011;4769;42.660;23.262;2023-04-15T06:28:00;10.13;;;7.60;;
9461;SDS011;4769;42.660;23.262;2023-04-15T06:30:25;10.40;;;6.53;;
9461;SDS011;4769;42.660;23.262;2023-04-15T06:32:53;10.80;;;6.97;;
9461;SDS011;4769;42.660;23.262;2023-04-15T06:35:19;10.38;;;6.68;;
9461;SDS011;4769;42.660;23.262;2023-04-15T06:37:45;11.13;;;6.63;;
9461;SDS011;4769;42.660;23.262;2023-04-15T06:40:11;7.70;;;5.97;;
9461;SDS011;4769;42.660;23.262;2023-04-15T06:42:37;9.60;;;6.55;;
9461;SDS011;4769;42.660;23.262;2023-04-15T06:45:03;7.93;;;6.63;;
9461;SDS011;4769;42.660;23.262;2023-04-15T06:47:29;8.95;;;6.40;;
9461;SDS011;4769;42.660;23.262;2023-04-15T06:49:58;7.50;;;6.20;;
9461;SDS011;4769;42.660;23.262;2023-04-15T06:52:23;8.63;;;7.10;;
9461;SDS011;4769;42.660;23.262;2023-04-15T06:54:49;7.93;;;6.07;;
9461;SDS011;4769;42.660;23.262;2023-04-15T06:57:15;9.48;;;6.75;;
9461;SDS011;4769;42.660;23.262;2023-04-15T06:59:40;11.27;;;6.05;;
9461;SDS011;4769;42.660;23.262;2023-04-15T07:02:06;9.65;;;5.95;;
9461;SDS011;4769;42.660;23.262;2023-04-15T07:04:36;8.20;;;5.43;;
9461;SDS011;4769;42.660;23.262;2023-04-15T07:07:04;10.35;;;7.85;;
9461;SDS011;4769;42.660;23.262;2023-04-15T07:09:30;4.18;;;3.20;;
9461;SDS011;4769;42.660;23.262;2023-04-15T07:11:55;4.18;;;1.83;;
9461;SDS011;4769;42.660;23.262;2023-04-15T07:14:21;5.72;;;3.78;;
9461;SDS011;4769;42.660;23.262;2023-04-15T07:16:47;7.88;;;5.72;;
9461;SDS011;4769;42.660;23.262;2023-04-15T07:19:12;4.88;;;3.30;;
9461;SDS011;4769;42.660;23.262;2023-04-15T07:21:38;4.95;;;2.72;;
9461;SDS011;4769;42.660;23.262;2023-04-15T07:24:07;9.15;;;5.65;;
9461;SDS011;4769;42.660;23.262;2023-04-15T07:26:32;9.52;;;6.15;;
9461;SDS011;4769;42.660;23.262;2023-04-15T07:28:58;10.63;;;5.30;;
9461;SDS011;4769;42.660;23.262;2023-04-15T07:31:24;8.07;;;4.55;;
9461;SDS011;4769;42.660;23.262;2023-04-15T07:33:49;6.50;;;3.42;;
9461;SDS011;4769;42.660;23.262;2023-04-15T07:36:15;3.17;;;1.67;;
9461;SDS011;4769;42.660;23.262;2023-04-15T07:38:41;7.43;;;3.00;;
9461;SDS011;4769;42.660;23.262;2023-04-15T07:41:09;8.95;;;4.78;;
9461;SDS011;4769;42.660;23.262;2023-04-15T07:43:35;10.30;;;4.60;;
9461;SDS011;4769;42.660;23.262;2023-04-15T07:46:01;6.88;;;4.30;;
9461;SDS011;4769;42.660;23.262;2023-04-15T07:48:27;9.50;;;4.60;;
9461;SDS011;4769;42.660;23.262;2023-04-15T07:50:53;5.18;;;3.67;;
9461;SDS011;4769;42.660;23.262;2023-04-15T07:53:18;4.95;;;3.47;;
9461;SDS011;4769;42.660;23.262;2023-04-15T07:55:45;7.47;;;3.90;;
9461;SDS011;4769;42.660;23.262;2023-04-15T07:58:13;4.82;;;3.38;;
9461;SDS011;4769;42.660;23.262;2023-04-15T08:00:39;5.50;;;3.28;;
9461;SDS011;4769;42.660;23.262;2023-04-15T08:03:05;7.63;;;3.83;;
9461;SDS011;4769;42.660;23.262;2023-04-15T08:05:30;8.35;;;4.25;;
9461;SDS011;4769;42.660;23.262;2023-04-15T08:07:58;5.95;;;3.72;;
9461;SDS011;4769;42.660;23.262;2023-04-15T08:10:27;6.93;;;2.90;;
9461;SDS011;4769;42.660;23.262;2023-04-15T08:12:53;4.75;;;2.72;;
9461;SDS011;4769;42.660;23.262;2023-04-15T08:15:22;5.25;;;2.22;;
9461;SDS011;4769;42.660;23.262;2023-04-15T08:17:48;4.88;;;3.28;;
9461;SDS011;4769;42.660;23.262;2023-04-15T08:20:14;6.63;;;3.00;;
9461;SDS011;4769;42.660;23.262;2023-04-15T08:22:40;4.45;;;2.70;;
9461;SDS011;4769;42.660;23.262;2023-04-15T08:25:06;2.92;;;2.20;;
9461;SDS011;4769;42.660;23.262;2023-04-15T08:27:32;4.60;;;2.25;;
9461;SDS011;4769;42.660;23.262;2023-04-15T08:29:58;5.57;;;1.92;;
9461;SDS011;4769;42.660;23.262;2023-04-15T08:32:26;4.88;;;1.80;;
9461;SDS011;4769;42.660;23.262;2023-04-15T08:34:52;6.72;;;2.25;;
9461;SDS011;4769;42.660;23.262;2023-04-15T08:37:17;4.72;;;2.60;;
9461;SDS011;4769;42.660;23.262;2023-04-15T08:39:43;3.80;;;2.10;;
9461;SDS011;4769;42.660;23.262;2023-04-15T08:42:11;4.57;;;2.22;;
9461;SDS011;4769;42.660;23.262;2023-04-15T08:44:41;3.03;;;1.80;;
9461;SDS011;4769;42.660;23.262;2023-04-15T08:47:08;3.15;;;1.83;;
9461;SDS011;4769;42.660;23.262;2023-04-15T08:49:39;2.40;;;1.40;;
9461;SDS011;4769;42.660;23.262;2023-04-15T08:52:06;2.60;;;0.95;;
9461;SDS011;4769;42.660;23.262;2023-04-15T08:54:33;1.33;;;0.95;;
9461;SDS011;4769;42.660;23.262;2023-04-15T08:56:59;3.03;;;1.10;;
9461;SDS011;4769;42.660;23.262;2023-04-15T08:59:25;3.13;;;1.20;;
9461;SDS011;4769;42.660;23.262;2023-04-15T09:01:51;2.85;;;1.25;;
9461;SDS011;4769;42.660;23.262;2023-04-15T09:04:18;2.63;;;1.38;;
9461;SDS011;4769;42.660;23.262;2023-04-15T09:06:46;4.07;;;1.10;;
9461;SDS011;4769;42.660;23.262;2023-04-15T09:09:12;5.80;;;1.42;;
9461;SDS011;4769;42.660;23.262;2023-04-15T09:11:38;4.45;;;1.80;;
9461;SDS011;4769;42.660;23.262;2023-04-15T09:14:04;5.80;;;1.52;;
9461;SDS011;4769;42.660;23.262;2023-04-15T09:19:23;2.55;;;0.70;;
9461;SDS011;4769;42.660;23.262;2023-04-15T09:21:53;1.65;;;0.82;;
9461;SDS011;4769;42.660;23.262;2023-04-15T09:24:19;2.58;;;0.75;;
9461;SDS011;4769;42.660;23.262;2023-04-15T09:26:45;1.48;;;1.00;;
9461;SDS011;4769;42.660;23.262;2023-04-15T09:29:11;2.20;;;0.80;;
9461;SDS011;4769;42.660;23.262;2023-04-15T09:31:37;2.58;;;0.93;;
9461;SDS011;4769;42.660;23.262;2023-04-15T09:34:04;1.95;;;1.30;;
9461;SDS011;4769;42.660;23.262;2023-04-15T09:36:34;1.00;;;0.90;;
9461;SDS011;4769;42.660;23.262;2023-04-15T09:39:18;1.92;;;0.98;;
9461;SDS011;4769;42.660;23.262;2023-04-15T09:41:44;1.77;;;1.10;;
9461;SDS011;4769;42.660;23.262;2023-04-15T09:44:20;3.35;;;1.17;;
9461;SDS011;4769;42.660;23.262;2023-04-15T09:46:47;2.55;;;1.02;;
9461;SDS011;4769;42.660;23.262;2023-04-15T09:49:12;3.38;;;0.98;;
9461;SDS011;4769;42.660;23.262;2023-04-15T09:51:38;1.80;;;0.80;;
9461;SDS011;4769;42.660;23.262;2023-04-15T09:54:04;3.05;;;1.08;;
9461;SDS011;4769;42.660;23.262;2023-04-15T09:56:34;2.78;;;1.25;;
9461;SDS011;4769;42.660;23.262;2023-04-15T09:59:00;2.75;;;0.73;;
9461;SDS011;4769;42.660;23.262;2023-04-15T10:01:26;3.50;;;1.10;;
9461;SDS011;4769;42.660;23.262;2023-04-15T10:03:52;1.85;;;1.00;;
9461;SDS011;4769;42.660;23.262;2023-04-15T10:06:21;2.70;;;1.10;;
9461;SDS011;4769;42.660;23.262;2023-04-15T10:08:48;2.90;;;1.23;;
9461;SDS011;4769;42.660;23.262;2023-04-15T10:11:13;3.95;;;1.27;;
9461;SDS011;4769;42.660;23.262;2023-04-15T10:13:42;2.92;;;1.20;;
9461;SDS011;4769;42.660;23.262;2023-04-15T10:16:10;3.55;;;1.20;;
9461;SDS011;4769;42.660;23.262;2023-04-15T10:18:37;3.83;;;1.50;;
9461;SDS011;4769;42.660;23.262;2023-04-15T10:21:06;3.80;;;1.20;;
9461;SDS011;4769;42.660;23.262;2023-04-15T10:23:33;2.28;;;1.17;;
9461;SDS011;4769;42.660;23.262;2023-04-15T10:25:59;1.92;;;1.05;;
9461;SDS011;4769;42.660;23.262;2023-04-15T10:28:25;3.72;;;1.50;;
9461;SDS011;4769;42.660;23.262;2023-04-15T10:30:55;3.17;;;1.10;;
9461;SDS011;4769;42.660;23.262;2023-04-15T10:33:23;3.15;;;1.27;;
9461;SDS011;4769;42.660;23.262;2023-04-15T10:35:50;2.78;;;1.30;;
9461;SDS011;4769;42.660;23.262;2023-04-15T10:41:15;6.15;;;1.75;;
9461;SDS011;4769;42.660;23.262;2023-04-15T10:43:46;3.75;;;2.08;;
9461;SDS011;4769;42.660;23.262;2023-04-15T10:46:18;1.92;;;1.48;;
9461;SDS011;4769;42.660;23.262;2023-04-15T10:48:47;3.25;;;1.40;;
9461;SDS011;4769;42.660;23.262;2023-04-15T10:51:14;2.60;;;1.30;;
9461;SDS011;4769;42.660;23.262;2023-04-15T10:53:40;2.42;;;1.52;;
9461;SDS011;4769;42.660;23.262;2023-04-15T10:56:06;2.53;;;1.30;;
9461;SDS011;4769;42.660;23.262;2023-04-15T10:58:40;3.08;;;1.60;;
9461;SDS011;4769;42.660;23.262;2023-04-15T11:01:06;1.92;;;1.40;;
9461;SDS011;4769;42.660;23.262;2023-04-15T11:03:38;2.67;;;1.40;;
9461;SDS011;4769;42.660;23.262;2023-04-15T11:06:06;1.77;;;1.40;;
9461;SDS011;4769;42.660;23.262;2023-04-15T11:11:20;3.38;;;1.52;;
9461;SDS011;4769;42.660;23.262;2023-04-15T11:13:47;3.35;;;1.60;;
9461;SDS011;4769;42.660;23.262;2023-04-15T11:16:14;3.80;;;1.63;;
9461;SDS011;4769;42.660;23.262;2023-04-15T11:18:42;3.55;;;1.75;;
9461;SDS011;4769;42.660;23.262;2023-04-15T11:21:18;3.58;;;1.48;;
9461;SDS011;4769;42.660;23.262;2023-04-15T11:23:48;2.28;;;1.33;;
9461;SDS011;4769;42.660;23.262;2023-04-15T11:26:17;2.47;;;1.38;;
9461;SDS011;4769;42.660;23.262;2023-04-15T11:28:43;1.95;;;1.30;;
9461;SDS011;4769;42.660;23.262;2023-04-15T11:31:10;4.60;;;1.60;;
9461;SDS011;4769;42.660;23.262;2023-04-15T11:33:37;2.65;;;1.60;;
9461;SDS011;4769;42.660;23.262;2023-04-15T11:36:17;2.70;;;1.50;;
9461;SDS011;4769;42.660;23.262;2023-04-15T11:38:43;6.47;;;2.00;;
9461;SDS011;4769;42.660;23.262;2023-04-15T11:41:11;3.50;;;1.95;;
9461;SDS011;4769;42.660;23.262;2023-04-15T11:43:37;3.53;;;1.40;;
9461;SDS011;4769;42.660;23.262;2023-04-15T11:46:03;2.40;;;1.60;;
9461;SDS011;4769;42.660;23.262;2023-04-15T11:48:30;2.70;;;1.33;;
9461;SDS011;4769;42.660;23.262;2023-04-15T11:50:59;2.38;;;1.33;;
9461;SDS011;4769;42.660;23.262;2023-04-15T11:53:35;3.00;;;1.30;;
9461;SDS011;4769;42.660;23.262;2023-04-15T11:56:02;1.90;;;1.40;;
9461;SDS011;4769;42.660;23.262;2023-04-15T11:58:28;3.08;;;1.27;;
9461;SDS011;4769;42.660;23.262;2023-04-15T12:00:54;2.75;;;1.42;;
9461;SDS011;4769;42.660;23.262;2023-04-15T12:03:22;2.47;;;1.30;;
9461;SDS011;4769;42.660;23.262;2023-04-15T12:11:28;1.48;;;1.27;;
9461;SDS011;4769;42.660;23.262;2023-04-15T12:13:57;2.80;;;1.60;;
9461;SDS011;4769;42.660;23.262;2023-04-15T12:16:24;2.55;;;1.20;;
9461;SDS011;4769;42.660;23.262;2023-04-15T12:18:52;1.45;;;1.10;;
9461;SDS011;4769;42.660;23.262;2023-04-15T12:21:22;3.08;;;1.10;;
9461;SDS011;4769;42.660;23.262;2023-04-15T12:23:50;2.17;;;1.20;;
9461;SDS011;4769;42.660;23.262;2023-04-15T12:26:16;3.20;;;1.45;;
9461;SDS011;4769;42.660;23.262;2023-04-15T12:28:42;2.78;;;1.25;;
9461;SDS011;4769;42.660;23.262;2023-04-15T12:31:08;1.73;;;1.05;;
9461;SDS011;4769;42.660;23.262;2023-04-15T12:33:35;2.15;;;1.23;;
9461;SDS011;4769;42.660;23.262;2023-04-15T12:36:01;3.53;;;1.45;;
9461;SDS011;4769;42.660;23.262;2023-04-15T12:38:30;1.50;;;1.20;;
9461;SDS011;4769;42.660;23.262;2023-04-15T12:40:56;2.38;;;1.33;;
9461;SDS011;4769;42.660;23.262;2023-04-15T12:43:22;1.77;;;1.13;;
9461;SDS011;4769;42.660;23.262;2023-04-15T12:45:49;3.47;;;1.35;;
9461;SDS011;4769;42.660;23.262;2023-04-15T12:48:14;1.70;;;1.05;;
9461;SDS011;4769;42.660;23.262;2023-04-15T12:50:40;2.10;;;1.20;;
9461;SDS011;4769;42.660;23.262;2023-04-15T12:53:06;2.97;;;1.38;;
9461;SDS011;4769;42.660;23.262;2023-04-15T12:55:34;2.88;;;1.17;;
9461;SDS011;4769;42.660;23.262;2023-04-15T12:57:59;2.22;;;0.90;;
9461;SDS011;4769;42.660;23.262;2023-04-15T13:00:25;1.42;;;1.13;;
9461;SDS011;4769;42.660;23.262;2023-04-15T13:02:51;1.48;;;1.10;;
9461;SDS011;4769;42.660;23.262;2023-04-15T13:05:18;1.10;;;0.93;;
9461;SDS011;4769;42.660;23.262;2023-04-15T13:07:43;1.98;;;1.13;;
9461;SDS011;4769;42.660;23.262;2023-04-15T13:10:09;2.88;;;0.98;;
9461;SDS011;4769;42.660;23.262;2023-04-15T13:12:38;1.85;;;1.10;;
9461;SDS011;4769;42.660;23.262;2023-04-15T13:15:04;1.17;;;0.80;;
9461;SDS011;4769;42.660;23.262;2023-04-15T13:17:30;2.10;;;1.00;;
9461;SDS011;4769;42.660;23.262;2023-04-15T13:19:56;1.25;;;0.90;;
9461;SDS011;4769;42.660;23.262;2023-04-15T13:22:22;3.20;;;1.02;;
9461;SDS011;4769;42.660;23.262;2023-04-15T13:24:47;2.95;;;1.30;;
9461;SDS011;4769;42.660;23.262;2023-04-15T13:27:13;1.95;;;1.20;;
9461;SDS011;4769;42.660;23.262;2023-04-15T13:29:42;1.92;;;1.20;;
9461;SDS011;4769;42.660;23.262;2023-04-15T13:32:07;2.08;;;1.05;;
9461;SDS011;4769;42.660;23.262;2023-04-15T13:34:33;1.65;;;1.08;;
9461;SDS011;4769;42.660;23.262;2023-04-15T13:37:04;2.72;;;0.98;;
9461;SDS011;4769;42.660;23.262;2023-04-15T13:45:46;4.43;;;1.08;;
9461;SDS011;4769;42.660;23.262;2023-04-15T13:46:12;0.95;;;0.82;;
9461;SDS011;4769;42.660;23.262;2023-04-15T13:48:38;1.33;;;0.90;;
9461;SDS011;4769;42.660;23.262;2023-04-15T13:54:07;1.92;;;1.00;;
9461;SDS011;4769;42.660;23.262;2023-04-15T13:56:43;3.05;;;1.00;;
9461;SDS011;4769;42.660;23.262;2023-04-15T13:59:29;19.63;;;13.02;;
9461;SDS011;4769;42.660;23.262;2023-04-15T14:01:58;2.97;;;1.98;;
9461;SDS011;4769;42.660;23.262;2023-04-15T14:04:24;3.22;;;1.05;;
9461;SDS011;4769;42.660;23.262;2023-04-15T14:06:58;1.65;;;1.23;;
9461;SDS011;4769;42.660;23.262;2023-04-15T14:09:24;1.47;;;0.90;;
9461;SDS011;4769;42.660;23.262;2023-04-15T14:11:55;4.43;;;2.00;;
9461;SDS011;4769;42.660;23.262;2023-04-15T14:14:45;1.77;;;1.10;;
9461;SDS011;4769;42.660;23.262;2023-04-15T14:17:16;2.13;;;1.17;;
9461;SDS011;4769;42.660;23.262;2023-04-15T14:19:42;1.48;;;1.23;;
9461;SDS011;4769;42.660;23.262;2023-04-15T14:22:07;3.38;;;1.48;;
9461;SDS011;4769;42.660;23.262;2023-04-15T14:24:33;3.67;;;1.67;;
9461;SDS011;4769;42.660;23.262;2023-04-15T14:27:05;1.85;;;1.08;;
9461;SDS011;4769;42.660;23.262;2023-04-15T14:30:05;1.02;;;0.77;;
9461;SDS011;4769;42.660;23.262;2023-04-15T14:32:34;4.60;;;1.52;;
9461;SDS011;4769;42.660;23.262;2023-04-15T14:35:03;1.75;;;1.20;;
9461;SDS011;4769;42.660;23.262;2023-04-15T14:37:29;1.60;;;1.10;;
9461;SDS011;4769;42.660;23.262;2023-04-15T14:39:55;3.70;;;1.40;;
9461;SDS011;4769;42.660;23.262;2023-04-15T14:42:21;1.02;;;0.73;;
9461;SDS011;4769;42.660;23.262;2023-04-15T14:44:47;3.30;;;1.08;;
9461;SDS011;4769;42.660;23.262;2023-04-15T14:47:12;2.83;;;1.17;;
9461;SDS011;4769;42.660;23.262;2023-04-15T14:49:41;3.10;;;1.08;;
9461;SDS011;4769;42.660;23.262;2023-04-15T14:52:09;1.15;;;0.82;;
9461;SDS011;4769;42.660;23.262;2023-04-15T14:54:45;2.55;;;1.35;;
9461;SDS011;4769;42.660;23.262;2023-04-15T15:00:13;3.25;;;1.20;;
9461;SDS011;4769;42.660;23.262;2023-04-15T15:04:46;1.65;;;1.20;;
9461;SDS011;4769;42.660;23.262;2023-04-15T15:05:38;2.33;;;1.00;;
9461;SDS011;4769;42.660;23.262;2023-04-15T15:08:05;1.95;;;1.27;;
9461;SDS011;4769;42.660;23.262;2023-04-15T15:10:31;1.33;;;0.93;;
9461;SDS011;4769;42.660;23.262;2023-04-15T15:12:56;1.98;;;0.90;;
9461;SDS011;4769;42.660;23.262;2023-04-15T15:15:22;1.30;;;1.02;;
9461;SDS011;4769;42.660;23.262;2023-04-15T15:17:50;2.67;;;1.52;;
9461;SDS011;4769;42.660;23.262;2023-04-15T15:20:16;2.33;;;1.38;;